Time;durP1;ratioP1;P1;durP2;ratioP2;P2;SDS_P1;SDS_P2;PMS_P1;PMS_P2;Temp;Humidity;BMP_temperature;BMP_pressure;BME280_temperature;BME280_humidity;BME280_pressure;Samples;Min_cycle;Max_cycle;Signal;HPM_P1;HPM_P2
2022/02/28 00:02:00;;;;;;;10.75;6.28;;;;;;;2.00;70.38;102460.63;4989746;28;20541;-81
2022/02/28 00:04:29;;;;;;;11.50;6.60;;;;;;;1.87;70.98;102461.16;4998524;28;20042;-81
2022/02/28 00:06:56;;;;;;;9.45;6.18;;;;;;;1.88;70.88;102462.84;5009517;28;20444;-82
2022/02/28 00:09:23;;;;;;;9.75;6.53;;;;;;;1.86;71.19;102475.81;5010522;28;20081;-82
2022/02/28 00:11:50;;;;;;;13.30;6.78;;;;;;;1.93;70.60;102473.81;5005605;28;20073;-81
2022/02/28 00:14:16;;;;;;;11.27;6.30;;;;;;;1.95;70.77;102472.88;5006968;28;20054;-81
2022/02/28 00:16:43;;;;;;;11.90;6.72;;;;;;;1.92;70.62;102470.38;5006085;28;20572;-80
2022/02/28 00:19:10;;;;;;;11.73;6.68;;;;;;;1.86;70.44;102467.22;5003706;28;20126;-81
2022/02/28 00:21:38;;;;;;;8.15;6.03;;;;;;;1.86;70.37;102451.72;5004579;28;20046;-81
2022/02/28 00:24:06;;;;;;;9.70;6.63;;;;;;;1.86;70.56;102446.56;5006672;28;20069;-81
2022/02/28 00:26:33;;;;;;;8.93;6.43;;;;;;;1.99;70.11;102458.09;5005370;28;20548;-81
2022/02/28 00:28:59;;;;;;;14.20;6.38;;;;;;;2.03;69.89;102464.84;5005546;28;20055;-81
2022/02/28 00:31:26;;;;;;;10.35;6.15;;;;;;;2.02;69.73;102463.16;5003980;28;20065;-81
2022/02/28 00:33:53;;;;;;;13.02;7.18;;;;;;;2.01;69.77;102471.81;5005493;28;20043;-81
2022/02/28 00:36:20;;;;;;;10.93;6.60;;;;;;;2.04;69.86;102474.28;5001902;28;20084;-81
2022/02/28 00:38:48;;;;;;;10.18;6.60;;;;;;;1.95;70.41;102490.09;5000725;28;20050;-80
2022/02/28 00:41:15;;;;;;;9.18;6.60;;;;;;;1.88;70.38;102488.66;5000604;28;20089;-80
2022/02/28 00:43:42;;;;;;;12.95;6.60;;;;;;;1.88;70.81;102483.50;5003328;28;20064;-80
2022/02/28 00:46:12;;;;;;;9.23;6.38;;;;;;;1.77;70.32;102483.03;5000351;28;20051;-82
2022/02/28 00:48:39;;;;;;;9.43;6.55;;;;;;;1.69;71.38;102474.72;5002510;28;20053;-82
2022/02/28 00:51:06;;;;;;;12.70;6.88;;;;;;;1.68;71.34;102486.78;5002924;28;20042;-82
2022/02/28 00:53:32;;;;;;;10.85;6.60;;;;;;;1.57;71.58;102481.97;5001183;28;20058;-79
2022/02/28 00:56:00;;;;;;;10.23;6.90;;;;;;;1.52;71.84;102483.03;5001959;28;20120;-80
2022/02/28 00:58:27;;;;;;;10.10;6.57;;;;;;;1.61;71.54;102487.88;4998877;28;20103;-80
2022/02/28 01:00:54;;;;;;;12.13;6.97;;;;;;;1.56;71.65;102489.78;5005028;28;20074;-80
2022/02/28 01:03:21;;;;;;;13.15;7.03;;;;;;;1.53;71.99;102482.97;5007061;28;20084;-80
2022/02/28 01:05:47;;;;;;;10.48;6.75;;;;;;;1.52;71.69;102494.19;5003644;28;20425;-80
2022/02/28 01:08:14;;;;;;;9.45;6.40;;;;;;;1.51;71.92;102486.50;5001274;28;20054;-80
2022/02/28 01:10:41;;;;;;;12.25;6.60;;;;;;;1.47;72.11;102484.91;5001150;28;20476;-80
2022/02/28 01:13:10;;;;;;;10.20;6.85;;;;;;;1.37;72.44;102479.25;5000273;28;20128;-79
2022/02/28 01:15:37;;;;;;;12.02;6.45;;;;;;;1.31;72.76;102479.47;5001390;28;20453;-80
2022/02/28 01:18:04;;;;;;;12.43;7.25;;;;;;;1.28;72.72;102484.72;5000869;28;20100;-80
2022/02/28 01:20:31;;;;;;;9.70;6.47;;;;;;;1.27;73.12;102488.19;5001508;28;20137;-80
2022/02/28 01:22:58;;;;;;;11.20;7.47;;;;;;;1.23;73.40;102486.59;5002259;28;20051;-80
2022/02/28 01:25:25;;;;;;;11.85;6.43;;;;;;;1.20;73.23;102484.13;5001137;28;20125;-81
2022/02/28 01:27:51;;;;;;;10.00;6.63;;;;;;;1.08;73.90;102482.78;5003450;28;20062;-80
2022/02/28 01:30:19;;;;;;;14.23;7.45;;;;;;;1.10;74.12;102480.16;5003923;28;20488;-80
2022/02/28 01:32:46;;;;;;;12.00;7.00;;;;;;;1.07;74.15;102480.25;5005288;28;20054;-79
2022/02/28 01:35:13;;;;;;;11.43;6.75;;;;;;;0.94;74.16;102472.94;5004892;28;20051;-80
2022/02/28 01:37:41;;;;;;;10.43;6.72;;;;;;;0.91;74.87;102475.63;5005115;28;20061;-81
2022/02/28 01:40:10;;;;;;;11.75;7.43;;;;;;;0.89;75.50;102477.41;5002795;28;20074;-80
2022/02/28 01:42:37;;;;;;;10.50;7.20;;;;;;;0.83;75.34;102480.16;5002810;28;20196;-79
2022/02/28 01:45:10;;;;;;;12.27;7.13;;;;;;;0.74;76.15;102485.59;5002218;28;20101;-82
2022/02/28 01:47:38;;;;;;;11.68;7.55;;;;;;;0.81;75.74;102474.22;5001899;28;20046;-79
2022/02/28 01:50:09;;;;;;;14.80;7.32;;;;;;;0.82;75.41;102472.47;4999291;28;20050;-79
2022/02/28 01:52:36;;;;;;;12.80;7.22;;;;;;;0.88;75.42;102487.75;4999667;28;20125;-79
2022/02/28 01:55:03;;;;;;;13.27;7.45;;;;;;;0.89;74.85;102484.28;5001762;28;20078;-80
2022/02/28 01:57:30;;;;;;;11.05;7.65;;;;;;;0.90;74.55;102485.97;5004594;28;20080;-79
2022/02/28 01:59:57;;;;;;;13.75;7.68;;;;;;;0.96;74.56;102489.16;5001937;28;20137;-80
2022/02/28 02:02:23;;;;;;;12.07;7.60;;;;;;;0.94;74.81;102495.28;4999018;28;20054;-80
2022/02/28 02:04:51;;;;;;;10.73;6.82;;;;;;;0.90;74.56;102484.25;4997734;28;20057;-82
2022/02/28 02:07:18;;;;;;;13.05;7.30;;;;;;;0.88;74.19;102480.03;4998960;28;20145;-81
2022/02/28 02:09:44;;;;;;;10.88;7.53;;;;;;;0.90;74.66;102473.09;5005459;28;20081;-80
2022/02/28 02:12:12;;;;;;;11.18;7.38;;;;;;;0.89;74.54;102477.41;5004967;28;20509;-80
2022/02/28 02:14:40;;;;;;;12.73;7.20;;;;;;;0.86;74.42;102472.34;5000852;28;20077;-81
2022/02/28 02:17:07;;;;;;;11.48;7.30;;;;;;;0.85;74.14;102470.66;5005350;28;20046;-80
2022/02/28 02:19:37;;;;;;;11.57;8.00;;;;;;;0.81;74.59;102463.91;4993190;28;20050;-79
2022/02/28 02:22:05;;;;;;;13.32;7.85;;;;;;;0.78;74.58;102460.59;5002577;28;20038;-82
2022/02/28 02:24:32;;;;;;;12.57;7.65;;;;;;;0.84;74.76;102460.38;5007659;28;20047;-82
2022/02/28 02:26:59;;;;;;;12.82;7.68;;;;;;;0.81;74.93;102457.91;5000120;28;20089;-82
2022/02/28 02:29:26;;;;;;;10.45;7.25;;;;;;;0.80;74.87;102457.06;4999318;28;20118;-82
2022/02/28 02:31:52;;;;;;;12.60;7.45;;;;;;;0.79;74.79;102460.53;5001004;28;20082;-83
2022/02/28 02:34:19;;;;;;;18.58;8.30;;;;;;;0.83;74.92;102461.28;5004016;28;20082;-81
2022/02/28 02:36:46;;;;;;;11.25;7.82;;;;;;;0.83;74.91;102462.13;5004088;28;20062;-82
2022/02/28 02:39:14;;;;;;;15.23;7.85;;;;;;;0.66;74.80;102448.91;5003578;28;20089;-84
2022/02/28 02:41:40;;;;;;;12.05;8.00;;;;;;;0.70;75.02;102463.41;5004180;28;20058;-83
2022/02/28 02:44:07;;;;;;;16.42;8.80;;;;;;;0.63;75.21;102454.16;4999681;28;20185;-82
2022/02/28 02:46:45;;;;;;;13.35;8.75;;;;;;;0.61;75.67;102471.41;4997635;28;20046;-81
2022/02/28 02:49:13;;;;;;;14.27;7.97;;;;;;;0.57;75.68;102454.34;4998608;28;20513;-81
2022/02/28 02:51:40;;;;;;;12.68;7.82;;;;;;;0.55;75.50;102462.13;5001115;28;20069;-82
2022/02/28 02:54:07;;;;;;;11.10;7.45;;;;;;;0.55;76.02;102462.13;5001409;28;20076;-81
2022/02/28 02:56:35;;;;;;;13.68;8.27;;;;;;;0.34;76.46;102452.50;4999488;28;20050;-81
2022/02/28 02:59:03;;;;;;;14.45;8.32;;;;;;;0.30;76.77;102456.91;5004544;28;20069;-82
2022/02/28 03:01:29;;;;;;;14.52;8.15;;;;;;;0.31;77.18;102463.72;5007508;28;20116;-83
2022/02/28 03:03:56;;;;;;;13.27;8.38;;;;;;;0.25;77.72;102481.09;5001197;28;20118;-82
2022/02/28 03:06:23;;;;;;;15.48;8.25;;;;;;;0.23;77.33;102464.84;5000543;28;20043;-83
2022/02/28 03:08:50;;;;;;;14.90;8.35;;;;;;;0.17;77.98;102475.31;4999831;28;20114;-82
2022/02/28 03:11:18;;;;;;;13.32;8.43;;;;;;;0.11;78.80;102468.59;5005689;28;20055;-84
2022/02/28 03:13:46;;;;;;;16.95;8.85;;;;;;;0.10;78.73;102469.50;5011215;28;20061;-82
2022/02/28 03:16:13;;;;;;;11.77;7.88;;;;;;;0.11;78.55;102475.50;5008388;28;20046;-84
2022/02/28 03:18:39;;;;;;;13.57;8.73;;;;;;;0.04;79.16;102479.97;5009995;28;20377;-83
2022/02/28 03:21:06;;;;;;;16.20;8.23;;;;;;;-0.01;79.11;102476.72;5012871;28;20066;-82
2022/02/28 03:23:34;;;;;;;14.05;8.63;;;;;;;-0.04;79.73;102476.78;5002722;28;20085;-80
2022/02/28 03:26:01;;;;;;;12.20;8.27;;;;;;;-0.10;80.35;102477.81;5000479;28;20120;-81
2022/02/28 03:28:28;;;;;;;14.45;8.07;;;;;;;-0.13;80.38;102477.03;4997492;28;20050;-82
2022/02/28 03:30:56;;;;;;;13.35;8.68;;;;;;;-0.08;79.80;102468.31;4997169;28;20125;-80
2022/02/28 03:33:22;;;;;;;14.57;7.60;;;;;;;-0.03;79.42;102465.59;4997809;28;20125;-82
2022/02/28 03:35:49;;;;;;;15.15;7.80;;;;;;;-0.09;79.57;102463.22;5001994;28;20129;-82
2022/02/28 03:38:16;;;;;;;14.68;8.73;;;;;;;-0.04;79.59;102458.78;5002911;28;20084;-82
2022/02/28 03:40:48;;;;;;;13.70;8.65;;;;;;;-0.05;79.09;102457.09;5003873;28;20116;-82
2022/02/28 03:43:15;;;;;;;15.85;9.02;;;;;;;0.02;78.87;102458.56;5003252;28;20100;-81
2022/02/28 03:45:41;;;;;;;15.35;8.48;;;;;;;0.11;78.69;102465.19;4999756;28;20047;-82
2022/02/28 03:48:10;;;;;;;13.88;8.23;;;;;;;0.14;78.40;102463.38;5001548;28;20043;-81
2022/02/28 03:50:36;;;;;;;11.88;7.85;;;;;;;0.15;78.23;102470.22;5000695;28;20083;-80
2022/02/28 03:53:04;;;;;;;12.52;8.07;;;;;;;0.15;78.27;102470.22;5000318;28;20058;-79
2022/02/28 03:55:31;;;;;;;13.38;8.30;;;;;;;0.17;77.81;102475.31;5000125;28;20070;-81
2022/02/28 03:57:59;;;;;;;13.68;8.15;;;;;;;0.16;77.74;102479.63;4999766;28;20058;-80
2022/02/28 04:00:26;;;;;;;11.77;8.07;;;;;;;0.11;78.09;102481.47;5000663;28;20089;-80
2022/02/28 04:02:53;;;;;;;13.35;8.10;;;;;;;0.04;77.92;102481.69;5000088;28;20081;-80
2022/02/28 04:05:21;;;;;;;13.63;8.25;;;;;;;0.10;77.59;102477.22;4999180;28;20046;-82
2022/02/28 04:07:48;;;;;;;13.88;8.45;;;;;;;0.10;78.18;102484.09;4999203;28;20519;-79
2022/02/28 04:10:15;;;;;;;14.93;9.02;;;;;;;0.11;77.61;102489.19;5000389;28;20064;-81
2022/02/28 04:12:43;;;;;;;12.43;8.48;;;;;;;0.09;77.39;102478.09;5002811;28;20050;-81
2022/02/28 04:15:10;;;;;;;14.90;9.07;;;;;;;0.06;77.56;102479.91;5000627;28;20509;-83
2022/02/28 04:17:37;;;;;;;13.95;8.23;;;;;;;0.07;77.70;102484.19;4998988;28;20114;-83
2022/02/28 04:20:05;;;;;;;16.73;9.32;;;;;;;-0.01;77.56;102479.28;5001671;28;20079;-82
2022/02/28 04:22:33;;;;;;;13.10;8.32;;;;;;;-0.01;77.20;102476.72;5002119;28;20059;-81
2022/02/28 04:25:00;;;;;;;14.48;8.65;;;;;;;0.00;77.94;102474.06;5025964;23;20189;-80
2022/02/28 04:27:26;;;;;;;13.88;8.73;;;;;;;0.04;77.33;102479.97;5035411;28;20092;-79
2022/02/28 04:29:53;;;;;;;14.88;9.10;;;;;;;0.05;77.60;102471.34;5043883;28;20432;-82
2022/02/28 04:32:20;;;;;;;15.02;9.18;;;;;;;-0.04;77.30;102477.63;5038470;28;20049;-82
2022/02/28 04:34:46;;;;;;;14.90;8.82;;;;;;;-0.11;78.03;102480.41;5038047;28;20060;-82
2022/02/28 04:37:13;;;;;;;14.35;8.05;;;;;;;-0.31;78.90;102472.38;5018642;28;20134;-82
2022/02/28 04:39:41;;;;;;;14.43;9.73;;;;;;;-0.15;78.00;102474.50;5018061;28;20208;-81
2022/02/28 04:42:08;;;;;;;12.27;8.30;;;;;;;-0.13;78.38;102467.59;5018498;28;20141;-80
2022/02/28 04:44:35;;;;;;;17.40;9.30;;;;;;;-0.10;77.66;102461.50;5017612;28;20481;-80
2022/02/28 04:47:02;;;;;;;14.63;9.18;;;;;;;-0.16;78.18;102465.09;5017010;28;20074;-81
2022/02/28 04:49:29;;;;;;;15.55;9.02;;;;;;;-0.20;78.14;102466.06;5021035;28;20061;-81
2022/02/28 04:51:56;;;;;;;14.43;8.88;;;;;;;-0.24;78.58;102463.63;5022175;28;20092;-82
2022/02/28 04:54:23;;;;;;;14.93;9.88;;;;;;;-0.25;78.66;102469.66;5019218;28;20128;-82
2022/02/28 04:56:51;;;;;;;16.33;9.30;;;;;;;-0.31;78.40;102465.50;5017542;28;20042;-81
2022/02/28 04:59:17;;;;;;;13.15;9.00;;;;;;;-0.35;79.03;102472.47;5017092;28;20188;-80
2022/02/28 05:01:44;;;;;;;16.88;9.43;;;;;;;-0.31;79.12;102473.22;5020544;28;20133;-81
2022/02/28 05:04:11;;;;;;;13.60;9.15;;;;;;;-0.40;78.85;102466.59;5021070;28;20078;-81
2022/02/28 05:06:37;;;;;;;13.63;9.00;;;;;;;-0.40;79.30;102468.31;5020043;28;20387;-82
2022/02/28 05:09:04;;;;;;;15.75;9.68;;;;;;;-0.41;79.60;102467.47;5019784;28;20049;-81
2022/02/28 05:11:31;;;;;;;15.15;9.20;;;;;;;-0.47;79.35;102462.50;5020104;28;20109;-82
2022/02/28 05:14:00;;;;;;;14.93;8.98;;;;;;;-0.46;79.37;102464.19;5019633;28;20495;-81
2022/02/28 05:16:26;;;;;;;17.20;9.35;;;;;;;-0.36;79.32;102467.38;5008785;28;20053;-77
2022/02/28 05:18:53;;;;;;;11.85;8.57;;;;;;;-0.42;79.02;102472.66;4998668;28;20110;-81
2022/02/28 05:21:20;;;;;;;15.35;8.90;;;;;;;-0.51;79.60;102471.22;5003034;28;20089;-81
2022/02/28 05:23:47;;;;;;;15.70;9.85;;;;;;;-0.56;80.13;102470.47;5001302;28;20116;-80
2022/02/28 05:26:14;;;;;;;15.88;9.30;;;;;;;-0.56;79.92;102473.06;5001243;28;20428;-80
2022/02/28 05:28:41;;;;;;;15.70;10.10;;;;;;;-0.43;79.21;102463.25;5000458;28;20413;-81
2022/02/28 05:31:09;;;;;;;17.00;10.18;;;;;;;-0.42;79.50;102464.94;5002507;28;20054;-81
2022/02/28 05:33:36;;;;;;;15.63;10.10;;;;;;;-0.42;79.85;102464.94;5000854;28;20050;-81
2022/02/28 05:36:02;;;;;;;17.08;9.80;;;;;;;-0.50;79.40;102462.63;5010137;28;20050;-81
2022/02/28 05:38:29;;;;;;;15.43;9.82;;;;;;;-0.34;79.70;102457.88;5019200;28;20065;-81
2022/02/28 05:40:56;;;;;;;15.48;10.35;;;;;;;-0.44;79.80;102459.84;5018014;28;20133;-83
2022/02/28 05:43:23;;;;;;;16.23;9.35;;;;;;;-0.43;80.01;102461.53;5017121;28;20455;-81
2022/02/28 05:45:49;;;;;;;18.42;10.30;;;;;;;-0.47;79.45;102454.78;5017871;28;20137;-82
2022/02/28 05:48:17;;;;;;;15.80;9.48;;;;;;;-0.49;80.22;102466.88;4999657;28;20113;-82
2022/02/28 05:50:44;;;;;;;15.13;8.90;;;;;;;-0.44;79.77;102472.72;5004629;28;20159;-82
2022/02/28 05:53:11;;;;;;;15.55;9.10;;;;;;;-0.42;79.24;102473.50;5014476;28;20061;-81
2022/02/28 05:55:38;;;;;;;15.15;9.35;;;;;;;-0.49;79.62;102477.16;5015451;28;20193;-81
2022/02/28 05:58:05;;;;;;;17.35;9.90;;;;;;;-0.58;80.15;102473.97;5010654;28;20038;-81
2022/02/28 06:00:32;;;;;;;17.23;9.85;;;;;;;-0.53;79.95;102472.97;5009935;28;20088;-83
2022/02/28 06:02:58;;;;;;;14.68;9.45;;;;;;;-0.44;79.36;102477.84;4999048;28;20053;-82
2022/02/28 06:05:26;;;;;;;16.38;10.57;;;;;;;-0.52;79.87;102469.53;4997983;28;20085;-83
2022/02/28 06:07:53;;;;;;;18.48;9.88;;;;;;;-0.53;80.10;102472.97;4999339;28;20089;-82
2022/02/28 06:10:20;;;;;;;16.08;9.95;;;;;;;-0.57;80.54;102479.09;4999446;28;20104;-82
2022/02/28 06:12:46;;;;;;;16.15;9.93;;;;;;;-0.64;80.63;102476.69;4999161;28;20179;-82
2022/02/28 06:15:13;;;;;;;17.58;9.77;;;;;;;-0.56;80.04;102487.63;4998845;28;20121;-81
2022/02/28 06:17:40;;;;;;;19.27;10.30;;;;;;;-0.52;80.29;102484.94;4999079;28;20129;-82
2022/02/28 06:20:07;;;;;;;19.80;9.82;;;;;;;-0.47;79.51;102483.06;4999686;28;20077;-83
2022/02/28 06:22:35;;;;;;;15.88;9.88;;;;;;;-0.51;79.72;102486.63;5004778;28;20812;-82
2022/02/28 06:25:02;;;;;;;16.20;9.85;;;;;;;-0.49;79.79;102494.31;5016419;28;20121;-82
2022/02/28 06:27:29;;;;;;;14.60;10.02;;;;;;;-0.45;79.74;102489.03;5013398;28;20049;-83
2022/02/28 06:29:56;;;;;;;23.77;10.50;;;;;;;-0.42;79.08;102491.50;5013071;28;20093;-79
2022/02/28 06:32:22;;;;;;;15.43;9.50;;;;;;;-0.37;78.98;102484.53;5007432;28;20212;-82
2022/02/28 06:34:49;;;;;;;18.27;9.77;;;;;;;-0.35;78.95;102487.91;5021496;28;20092;-82
2022/02/28 06:37:16;;;;;;;17.88;10.27;;;;;;;-0.29;78.84;102496.34;5021615;28;20045;-83
2022/02/28 06:39:45;;;;;;;15.50;9.20;;;;;;;-0.37;79.42;102494.81;5022083;28;20073;-83
2022/02/28 06:42:12;;;;;;;16.17;9.70;;;;;;;-0.34;79.13;102496.47;5022879;28;20060;-83
2022/02/28 06:44:38;;;;;;;14.30;8.73;;;;;;;-0.31;78.91;102504.09;5022772;28;20077;-83
2022/02/28 06:47:05;;;;;;;19.85;10.25;;;;;;;-0.27;79.46;102499.72;5021904;28;20433;-83
2022/02/28 06:49:32;;;;;;;17.73;10.10;;;;;;;-0.27;79.40;102497.16;5022122;28;20134;-83
2022/02/28 06:51:58;;;;;;;18.00;10.73;;;;;;;-0.27;79.84;102512.59;5022678;28;20145;-82
2022/02/28 06:54:25;;;;;;;17.88;9.48;;;;;;;-0.09;79.35;102507.78;5020734;28;20104;-83
2022/02/28 06:56:53;;;;;;;19.88;10.63;;;;;;;0.43;77.92;102501.16;5013613;28;20042;-83
2022/02/28 06:59:20;;;;;;;16.23;9.82;;;;;;;1.02;74.60;102497.59;5005693;28;20099;-83
2022/02/28 07:01:46;;;;;;;14.63;9.15;;;;;;;1.68;72.74;102502.25;5021054;28;20096;-83
2022/02/28 07:04:13;;;;;;;16.95;9.73;;;;;;;2.12;69.89;102498.06;5020985;28;20076;-82
2022/02/28 07:06:39;;;;;;;18.02;9.20;;;;;;;2.41;69.14;102503.88;5021268;28;20179;-82
2022/02/28 07:09:08;;;;;;;13.18;9.05;;;;;;;2.56;68.35;102508.47;5021711;28;20125;-82
2022/02/28 07:11:35;;;;;;;16.88;9.20;;;;;;;2.61;67.96;102498.81;5021671;28;20473;-82
2022/02/28 07:14:04;;;;;;;19.90;9.27;;;;;;;2.59;68.01;102493.69;5023131;28;20056;-82
2022/02/28 07:16:31;;;;;;;17.40;9.02;;;;;;;2.75;67.67;102504.28;5000035;28;20056;-81
2022/02/28 07:18:57;;;;;;;21.77;9.70;;;;;;;2.93;66.84;102503.56;5000895;28;20061;-82
2022/02/28 07:21:24;;;;;;;15.70;9.93;;;;;;;2.93;66.82;102497.53;5002556;28;20077;-81
2022/02/28 07:23:51;;;;;;;16.00;8.70;;;;;;;3.23;65.82;102496.31;5002043;28;20471;-82
2022/02/28 07:26:17;;;;;;;17.42;9.70;;;;;;;3.23;65.61;102498.06;5001787;28;20133;-82
2022/02/28 07:28:44;;;;;;;14.77;9.73;;;;;;;3.18;65.57;102494.81;5003313;28;20050;-81
2022/02/28 07:31:12;;;;;;;13.68;9.57;;;;;;;3.06;66.11;102501.31;5003346;28;20050;-82
2022/02/28 07:33:38;;;;;;;15.75;9.95;;;;;;;3.31;65.29;102499.38;5002076;28;20480;-82
2022/02/28 07:36:06;;;;;;;14.45;9.98;;;;;;;3.31;65.65;102493.38;4995097;28;20472;-82
2022/02/28 07:38:33;;;;;;;14.00;9.13;;;;;;;3.52;63.93;102502.00;4998434;28;20118;-82
2022/02/28 07:41:00;;;;;;;14.45;9.48;;;;;;;3.33;64.68;102496.75;5003872;28;20054;-82
2022/02/28 07:43:27;;;;;;;12.80;9.40;;;;;;;3.38;64.08;102494.81;5003953;28;20081;-82
2022/02/28 07:45:54;;;;;;;15.65;10.00;;;;;;;3.44;64.61;102491.13;5004254;28;20065;-82
2022/02/28 07:48:21;;;;;;;15.10;10.07;;;;;;;3.61;64.31;102492.09;5003217;28;20078;-82
2022/02/28 07:50:48;;;;;;;13.35;9.40;;;;;;;3.62;64.44;102492.94;4993109;28;20145;-80
2022/02/28 07:53:15;;;;;;;13.35;9.48;;;;;;;3.70;63.59;102492.63;4993890;28;20474;-81
2022/02/28 07:55:41;;;;;;;14.27;9.50;;;;;;;3.77;63.35;102487.09;4992412;28;20085;-80
2022/02/28 07:58:08;;;;;;;15.02;9.85;;;;;;;3.83;63.05;102488.56;4991324;28;20070;-81
2022/02/28 08:00:35;;;;;;;12.82;9.30;;;;;;;3.82;62.39;102479.94;4994462;28;20125;-81
2022/02/28 08:03:01;;;;;;;17.08;9.88;;;;;;;4.05;61.66;102486.72;4982224;28;20093;-84
2022/02/28 08:05:29;;;;;;;17.92;10.35;;;;;;;4.07;61.28;102492.66;4982614;28;20058;-82
2022/02/28 08:07:56;;;;;;;17.42;10.90;;;;;;;4.25;61.56;102488.41;4981096;28;20110;-84
2022/02/28 08:10:23;;;;;;;20.05;10.48;;;;;;;4.23;61.69;102493.66;4981704;28;20078;-82
2022/02/28 08:12:49;;;;;;;17.35;10.38;;;;;;;4.21;61.84;102489.47;4982869;28;20487;-82
2022/02/28 08:15:16;;;;;;;14.80;9.88;;;;;;;4.39;61.28;102492.94;4988698;28;20488;-81
2022/02/28 08:17:43;;;;;;;14.18;9.63;;;;;;;4.52;60.76;102488.88;4989877;28;20456;-83
2022/02/28 08:20:10;;;;;;;16.40;10.35;;;;;;;4.61;59.60;102488.44;4988004;28;20042;-82
2022/02/28 08:22:38;;;;;;;16.38;10.40;;;;;;;4.60;59.52;102491.97;4988642;28;20042;-82
2022/02/28 08:25:09;;;;;;;15.45;10.05;;;;;;;4.53;59.49;102500.94;4987165;28;20061;-83
2022/02/28 08:27:36;;;;;;;13.43;10.35;;;;;;;4.63;59.56;102491.81;4987890;28;20046;-83
2022/02/28 08:30:04;;;;;;;13.95;10.15;;;;;;;4.83;59.79;102504.66;4986592;28;20142;-81
2022/02/28 08:32:31;;;;;;;14.80;10.48;;;;;;;4.97;59.56;102507.44;4991482;28;20066;-82
2022/02/28 08:34:58;;;;;;;15.88;10.80;;;;;;;5.02;59.14;102511.56;4987185;28;20485;-82
2022/02/28 08:37:24;;;;;;;16.95;10.65;;;;;;;5.17;58.92;102497.84;4992120;28;20481;-81
2022/02/28 08:39:52;;;;;;;26.52;11.77;;;;;;;5.13;58.18;102512.72;4987338;28;20571;-82
2022/02/28 08:42:22;;;;;;;14.80;10.02;;;;;;;5.22;57.74;102507.06;5002493;28;20507;-82
2022/02/28 08:44:53;;;;;;;16.77;10.88;;;;;;;5.21;58.15;102499.34;4995363;28;20109;-81
2022/02/28 08:47:20;;;;;;;16.88;10.13;;;;;;;5.10;57.74;102499.91;4997281;28;20057;-83
2022/02/28 08:49:49;;;;;;;16.38;10.63;;;;;;;5.31;56.99;102509.22;4998911;28;20057;-83
2022/02/28 08:52:15;;;;;;;24.35;11.55;;;;;;;5.21;57.25;102497.59;4998980;28;20056;-82
2022/02/28 08:54:42;;;;;;;13.27;9.68;;;;;;;5.17;56.85;102503.88;5002666;28;20078;-82
2022/02/28 08:57:10;;;;;;;13.77;10.07;;;;;;;5.23;56.10;102503.56;4993104;28;20047;-82
2022/02/28 08:59:37;;;;;;;15.85;9.75;;;;;;;5.53;56.61;102513.34;4993521;28;20043;-83
2022/02/28 09:02:04;;;;;;;17.73;10.73;;;;;;;5.26;56.34;102507.75;4995642;28;20085;-83
2022/02/28 09:04:31;;;;;;;16.92;10.50;;;;;;;5.29;57.11;102492.03;5001704;28;20185;-82
2022/02/28 09:06:58;;;;;;;14.10;9.70;;;;;;;5.00;56.75;102504.69;5000308;28;20054;-83
2022/02/28 09:09:28;;;;;;;16.08;10.05;;;;;;;5.23;57.33;102494.94;4995271;28;20050;-82
2022/02/28 09:11:55;;;;;;;16.23;10.48;;;;;;;5.30;57.15;102496.31;4998753;28;20141;-82
2022/02/28 09:14:23;;;;;;;17.02;10.93;;;;;;;5.26;57.24;102512.94;4999137;28;20125;-82
2022/02/28 09:16:52;;;;;;;16.52;10.95;;;;;;;5.13;55.90;102504.09;5001476;28;20142;-82
2022/02/28 09:19:19;;;;;;;15.13;10.73;;;;;;;5.25;56.59;102501.72;4985783;28;20076;-82
2022/02/28 09:21:46;;;;;;;17.00;10.75;;;;;;;5.07;56.25;102502.66;4982248;28;20106;-82
2022/02/28 09:24:13;;;;;;;17.02;10.55;;;;;;;5.20;55.90;102492.50;4981642;28;20186;-83
2022/02/28 09:26:39;;;;;;;14.05;10.27;;;;;;;5.15;56.41;102497.09;4979670;28;20082;-81
2022/02/28 09:29:09;;;;;;;17.20;9.85;;;;;;;5.42;55.86;102498.28;4979458;28;20484;-82
2022/02/28 09:31:37;;;;;;;17.80;10.15;;;;;;;5.30;55.38;102498.91;4979993;28;20138;-81
2022/02/28 09:34:04;;;;;;;17.00;10.15;;;;;;;5.40;55.64;102509.66;4981217;28;20462;-82
2022/02/28 09:36:30;;;;;;;14.75;10.35;;;;;;;5.50;55.76;102503.09;4998896;28;20049;-81
2022/02/28 09:38:58;;;;;;;14.80;10.63;;;;;;;5.44;54.04;102491.25;4999160;28;20044;-82
2022/02/28 09:41:25;;;;;;;14.27;10.30;;;;;;;5.49;55.07;102496.22;5011958;28;20046;-82
2022/02/28 09:43:54;;;;;;;21.33;11.65;;;;;;;5.51;54.44;102500.44;5006846;28;20113;-82
2022/02/28 09:46:20;;;;;;;17.23;10.57;;;;;;;5.58;54.62;102488.81;4980836;28;20050;-81
2022/02/28 09:48:52;;;;;;;15.15;9.77;;;;;;;5.68;54.42;102490.00;4980653;28;20110;-82
2022/02/28 09:51:22;;;;;;;16.10;10.63;;;;;;;5.76;55.10;102489.59;4987862;28;20073;-82
2022/02/28 09:53:51;;;;;;;17.83;10.73;;;;;;;5.81;54.49;102486.78;4992366;28;20242;-81
2022/02/28 09:56:20;;;;;;;16.05;11.30;;;;;;;6.06;54.77;102488.97;4999233;28;20579;-82
2022/02/28 09:58:47;;;;;;;17.83;11.13;;;;;;;5.97;53.43;102492.88;5001150;28;20042;-81
2022/02/28 10:01:17;;;;;;;18.17;12.00;;;;;;;6.19;54.50;102489.97;4997071;28;20481;-83
2022/02/28 10:03:43;;;;;;;14.52;10.30;;;;;;;6.16;53.56;102493.56;4990510;28;20452;-83
2022/02/28 10:06:14;;;;;;;17.58;11.20;;;;;;;6.00;53.32;102500.53;4992322;28;20114;-81
2022/02/28 10:08:43;;;;;;;18.23;10.48;;;;;;;6.24;52.84;102493.16;4990720;28;20165;-83
2022/02/28 10:11:24;;;;;;;16.65;10.82;;;;;;;6.30;52.35;102485.03;4990823;28;20112;-83
2022/02/28 10:13:55;;;;;;;16.13;10.90;;;;;;;6.46;53.09;102490.25;4992196;28;20078;-83
2022/02/28 10:16:33;;;;;;;18.00;12.00;;;;;;;6.41;51.75;102493.09;4991208;28;20807;-83
2022/02/28 10:19:00;;;;;;;18.90;11.60;;;;;;;6.50;51.46;102486.56;4990674;28;20126;-85
2022/02/28 10:21:43;;;;;;;15.90;11.00;;;;;;;6.63;51.88;102484.94;4986276;28;20097;-84
2022/02/28 10:24:11;;;;;;;26.08;10.85;;;;;;;6.84;51.07;102501.13;4989623;28;20089;-84
2022/02/28 10:26:43;;;;;;;19.48;11.13;;;;;;;6.76;50.18;102485.09;5036680;23;20440;-84
2022/02/28 10:29:11;;;;;;;15.85;10.40;;;;;;;6.81;49.99;102496.91;5032948;28;20056;-83
2022/02/28 10:31:39;;;;;;;16.33;11.23;;;;;;;6.91;49.80;102495.47;5045273;28;20080;-84
2022/02/28 10:34:19;;;;;;;14.68;10.50;;;;;;;7.05;48.32;102499.06;5044878;28;20045;-85
2022/02/28 10:37:02;;;;;;;18.30;10.57;;;;;;;7.24;49.02;102492.69;5040835;28;20046;-85
2022/02/28 10:39:32;;;;;;;15.18;9.80;;;;;;;7.43;47.93;102487.25;5011903;28;20042;-86
2022/02/28 10:42:04;;;;;;;15.77;10.50;;;;;;;7.23;47.22;102496.22;5018857;28;20042;-86
2022/02/28 10:44:31;;;;;;;18.90;10.75;;;;;;;7.17;47.03;102485.31;5019820;28;20129;-84
2022/02/28 10:47:03;;;;;;;16.83;10.85;;;;;;;7.42;46.60;102485.59;5017853;28;20050;-85
2022/02/28 10:49:32;;;;;;;20.70;10.93;;;;;;;7.39;45.75;102506.59;5021044;28;20049;-86
2022/02/28 10:52:03;;;;;;;15.88;10.63;;;;;;;7.40;46.06;102497.84;5017395;28;20053;-86
2022/02/28 10:54:32;;;;;;;16.30;11.57;;;;;;;7.68;45.39;102496.22;5020739;28;20055;-86
2022/02/28 10:57:03;;;;;;;16.40;11.00;;;;;;;7.70;44.87;102483.94;5028378;28;20057;-87
2022/02/28 10:59:32;;;;;;;19.55;11.35;;;;;;;7.55;43.48;102507.38;5020733;28;20045;-84
2022/02/28 11:02:00;;;;;;;21.02;10.95;;;;;;;7.78;43.99;102474.72;5020934;28;20081;-84
2022/02/28 11:04:38;;;;;;;31.48;13.40;;;;;;;7.75;43.85;102477.50;5022608;28;20145;-83
2022/02/28 11:07:09;;;;;;;18.27;11.02;;;;;;;7.65;43.28;102472.00;5022092;28;20054;-86
2022/02/28 11:09:39;;;;;;;16.38;10.90;;;;;;;7.99;43.37;102476.03;5019603;28;20050;-85
2022/02/28 11:12:30;;;;;;;14.32;10.13;;;;;;;8.13;44.09;102464.72;5022214;28;20081;-85
2022/02/28 11:15:01;;;;;;;15.07;10.98;;;;;;;8.15;43.01;102470.69;5025139;28;20057;-84
2022/02/28 11:17:29;;;;;;;18.05;10.88;;;;;;;7.97;42.44;102456.19;5029415;28;20053;-84
2022/02/28 11:19:59;;;;;;;23.17;11.32;;;;;;;7.99;42.66;102459.56;5028488;28;20100;-85
2022/02/28 11:22:28;;;;;;;15.02;10.60;;;;;;;7.98;41.87;102468.31;5028576;28;20050;-84
2022/02/28 11:24:56;;;;;;;42.47;13.45;;;;;;;8.25;43.96;102460.53;5026587;28;20061;-84